Time;durP1;ratioP1;P1;durP2;ratioP2;P2;SDS_P1;SDS_P2;PMS_P1;PMS_P2;Temp;Humidity;BMP_temperature;BMP_pressure;BME280_temperature;BME280_humidity;BME280_pressure;Samples;Min_cycle;Max_cycle;Signal;HPM_P1;HPM_P2
2022/10/16 00:01:24;;;;;;;5.38;1.52;;;24.80;51.60;;;;;;5038166;28;20032;-69
2022/10/16 00:03:51;;;;;;;5.85;1.33;;;25.10;51.90;;;;;;5043110;28;20109;-69
2022/10/16 00:06:21;;;;;;;3.97;1.10;;;25.30;49.70;;;;;;5045857;28;20049;-69
2022/10/16 00:08:49;;;;;;;6.65;1.30;;;25.40;50.30;;;;;;5046800;28;20028;-68
2022/10/16 00:11:28;;;;;;;2.47;0.50;;;25.50;50.00;;;;;;5043767;28;20488;-67
2022/10/16 00:14:00;;;;;;;5.15;1.02;;;24.90;48.90;;;;;;5045747;28;20200;-69
2022/10/16 00:16:29;;;;;;;2.28;0.90;;;24.60;49.90;;;;;;5044521;28;20021;-69
2022/10/16 00:18:56;;;;;;;4.28;0.80;;;24.20;50.90;;;;;;5045541;28;20422;-70
2022/10/16 00:21:26;;;;;;;3.85;1.30;;;24.20;53.40;;;;;;5046270;28;20029;-69
2022/10/16 00:23:56;;;;;;;3.30;0.68;;;24.50;53.40;;;;;;5040721;28;20036;-67
2022/10/16 00:26:24;;;;;;;6.88;0.70;;;24.40;49.50;;;;;;5038655;28;20286;-67
2022/10/16 00:28:52;;;;;;;3.47;0.88;;;24.40;51.00;;;;;;5040495;28;20036;-67
2022/10/16 00:31:21;;;;;;;6.22;1.10;;;24.30;51.20;;;;;;5044794;28;20052;-67
2022/10/16 00:33:50;;;;;;;10.38;1.45;;;24.80;53.10;;;;;;5032434;28;20059;-68
2022/10/16 00:36:19;;;;;;;3.10;0.77;;;25.10;50.30;;;;;;5044588;28;20029;-68
2022/10/16 00:38:47;;;;;;;6.30;0.98;;;25.00;52.10;;;;;;5040953;28;20056;-68
2022/10/16 00:41:17;;;;;;;3.35;0.70;;;25.30;54.70;;;;;;5043893;28;20493;-68
2022/10/16 00:43:47;;;;;;;3.33;0.90;;;25.60;51.20;;;;;;5033639;28;20028;-69
2022/10/16 00:46:22;;;;;;;4.03;0.80;;;26.00;50.00;;;;;;5044151;28;20021;-70
2022/10/16 00:49:05;;;;;;;6.45;1.13;;;26.40;50.30;;;;;;5041110;28;20415;-71
2022/10/16 00:51:37;;;;;;;6.63;0.95;;;26.30;47.60;;;;;;5041534;28;20041;-70
2022/10/16 00:54:12;;;;;;;2.83;0.73;;;26.10;48.20;;;;;;5046791;28;20035;-70
2022/10/16 00:56:39;;;;;;;3.42;0.88;;;26.30;49.40;;;;;;5043754;28;20060;-70
2022/10/16 00:59:18;;;;;;;3.20;1.02;;;26.60;51.50;;;;;;5042436;28;20088;-69
2022/10/16 01:01:45;;;;;;;6.03;1.65;;;26.90;53.30;;;;;;5031042;28;20040;-69
2022/10/16 01:04:13;;;;;;;4.60;1.27;;;27.10;51.20;;;;;;5042603;28;20060;-69
2022/10/16 01:06:49;;;;;;;5.97;1.15;;;27.00;51.10;;;;;;5046488;28;20082;-68
2022/10/16 01:09:49;;;;;;;4.10;1.08;;;26.70;48.20;;;;;;5045609;28;20033;-68
2022/10/16 01:12:21;;;;;;;4.05;1.00;;;26.40;48.00;;;;;;5045003;28;20036;-68
2022/10/16 01:15:15;;;;;;;5.18;1.45;;;26.30;49.20;;;;;;5043880;28;20051;-68
2022/10/16 01:18:21;;;;;;;3.05;0.93;;;25.90;47.80;;;;;;5047406;28;20057;-67
2022/10/16 01:20:54;;;;;;;2.58;0.75;;;26.10;50.40;;;;;;5034795;28;20041;-67
2022/10/16 01:23:45;;;;;;;3.28;0.98;;;25.70;48.60;;;;;;5043594;28;20032;-68
2022/10/16 01:26:32;;;;;;;3.65;0.90;;;26.00;51.00;;;;;;5038553;28;20033;-67
2022/10/16 01:29:06;;;;;;;8.07;0.95;;;26.00;50.20;;;;;;5042477;28;20037;-67
2022/10/16 01:31:35;;;;;;;;;;;25.90;48.20;;;;;;5049175;28;20399;-68
2022/10/16 01:34:11;;;;;;;3.13;1.10;;;25.80;50.90;;;;;;5047081;28;20020;-68
2022/10/16 01:36:52;;;;;;;2.05;0.75;;;25.60;50.00;;;;;;5039549;28;20063;-68
2022/10/16 01:39:23;;;;;;;5.10;0.85;;;25.60;48.80;;;;;;5065638;28;20056;-68
2022/10/16 01:42:14;;;;;;;3.80;1.30;;;25.60;50.20;;;;;;5047271;28;20032;-69
2022/10/16 01:44:43;;;;;;;3.60;0.93;;;25.80;49.70;;;;;;5050860;28;20037;-70
2022/10/16 01:47:13;;;;;;;7.05;1.15;;;26.00;50.80;;;;;;5047337;28;20044;-69
2022/10/16 01:49:42;;;;;;;2.67;1.25;;;25.60;49.70;;;;;;5046652;28;20036;-68
2022/10/16 01:52:17;;;;;;;5.30;1.45;;;25.60;50.20;;;;;;5048978;28;20103;-69
2022/10/16 01:54:48;;;;;;;3.47;0.80;;;25.30;50.60;;;;;;5047293;28;20025;-72
2022/10/16 01:57:16;;;;;;;2.92;0.77;;;25.00;51.40;;;;;;5049236;28;20040;-69
2022/10/16 01:59:47;;;;;;;5.95;1.50;;;25.10;51.80;;;;;;5048879;28;20455;-68
2022/10/16 02:02:17;;;;;;;4.82;1.10;;;25.10;51.60;;;;;;5046509;28;20029;-68
2022/10/16 02:04:52;;;;;;;5.93;1.70;;;25.40;51.70;;;;;;5048518;28;20021;-69
2022/10/16 02:07:19;;;;;;;3.72;1.00;;;25.70;50.40;;;;;;5047428;28;20033;-69
2022/10/16 02:09:46;;;;;;;3.88;1.10;;;25.60;50.00;;;;;;5047194;28;20025;-66
2022/10/16 02:12:16;;;;;;;3.22;0.60;;;25.80;50.80;;;;;;5048517;28;20032;-64
2022/10/16 02:14:44;;;;;;;6.68;1.13;;;25.80;50.30;;;;;;5047727;28;20028;-64
2022/10/16 02:17:13;;;;;;;3.15;0.80;;;25.80;51.90;;;;;;5047789;28;20083;-64
2022/10/16 02:19:42;;;;;;;5.18;1.05;;;25.80;50.20;;;;;;5048323;28;20481;-64
2022/10/16 02:22:16;;;;;;;2.10;0.82;;;25.70;50.20;;;;;;5047048;28;20068;-64
2022/10/16 02:24:55;;;;;;;;;;;25.50;50.70;;;;;;5049265;28;20098;-65
2022/10/16 02:27:28;;;;;;;5.75;1.02;;;25.60;51.40;;;;;;5045569;28;19925;-64
2022/10/16 02:30:08;;;;;;;1.52;0.80;;;25.60;49.90;;;;;;5047022;28;20029;-64
2022/10/16 02:32:39;;;;;;;4.55;0.90;;;25.50;50.50;;;;;;5048935;28;20025;-64
2022/10/16 02:35:09;;;;;;;3.42;0.73;;;24.90;51.60;;;;;;5046991;28;20036;-64
2022/10/16 02:37:38;;;;;;;1.67;0.60;;;24.60;52.10;;;;;;5048363;28;20096;-67
2022/10/16 02:40:07;;;;;;;2.85;0.95;;;24.40;53.60;;;;;;5048830;28;20389;-64
2022/10/16 02:42:36;;;;;;;5.50;0.80;;;24.50;53.70;;;;;;5048807;28;20469;-64
2022/10/16 02:45:04;;;;;;;4.82;1.00;;;24.50;54.20;;;;;;5046605;28;20029;-64
2022/10/16 02:47:32;;;;;;;5.25;1.13;;;24.60;51.90;;;;;;5046878;28;20037;-65
2022/10/16 02:49:59;;;;;;;3.05;0.85;;;24.90;52.20;;;;;;5045598;28;20031;-64
2022/10/16 02:52:26;;;;;;;4.85;1.33;;;25.00;51.30;;;;;;5044791;28;20075;-65
2022/10/16 02:54:54;;;;;;;8.38;2.13;;;25.10;52.50;;;;;;5048781;28;20032;-66
2022/10/16 02:57:21;;;;;;;4.13;0.88;;;25.20;52.00;;;;;;5049425;28;20033;-66
2022/10/16 02:59:49;;;;;;;7.05;1.17;;;25.00;51.90;;;;;;5049982;28;20017;-67
2022/10/16 03:02:16;;;;;;;4.22;1.10;;;24.80;53.40;;;;;;5050196;28;20455;-67
2022/10/16 03:04:43;;;;;;;4.40;1.02;;;24.20;54.10;;;;;;5050036;28;20151;-67
2022/10/16 03:07:11;;;;;;;7.18;1.15;;;23.90;55.50;;;;;;5050101;28;20148;-67
2022/10/16 03:09:38;;;;;;;5.00;1.33;;;23.70;56.70;;;;;;5050165;28;20508;-67
2022/10/16 03:12:06;;;;;;;4.00;1.20;;;23.40;57.10;;;;;;5050157;28;20025;-66
2022/10/16 03:14:34;;;;;;;6.22;1.25;;;23.10;57.30;;;;;;5050509;28;20021;-66
2022/10/16 03:17:01;;;;;;;6.65;1.30;;;23.10;57.40;;;;;;5050021;28;20120;-66
2022/10/16 03:19:28;;;;;;;5.82;1.40;;;23.30;57.00;;;;;;5048361;28;20142;-66
2022/10/16 03:21:55;;;;;;;3.33;1.10;;;23.30;57.30;;;;;;5049975;28;20025;-66
2022/10/16 03:24:23;;;;;;;5.60;1.20;;;23.40;57.10;;;;;;5049857;28;20390;-66
2022/10/16 03:26:50;;;;;;;7.50;2.00;;;23.20;58.20;;;;;;5049304;28;20036;-66
2022/10/16 03:29:17;;;;;;;9.48;2.13;;;22.90;59.40;;;;;;5049747;28;20013;-67
2022/10/16 03:31:45;;;;;;;6.63;2.05;;;22.70;60.80;;;;;;5049896;28;20429;-67
2022/10/16 03:34:12;;;;;;;5.85;1.88;;;22.60;61.50;;;;;;5049535;28;20032;-67
2022/10/16 03:36:39;;;;;;;4.97;1.00;;;22.70;61.60;;;;;;5049700;28;20671;-67
2022/10/16 03:39:07;;;;;;;6.35;1.50;;;22.50;61.50;;;;;;5050125;28;20025;-66
2022/10/16 03:41:34;;;;;;;2.55;0.75;;;22.40;63.10;;;;;;5049983;28;20017;-66
2022/10/16 03:44:01;;;;;;;4.53;1.10;;;22.40;64.20;;;;;;5049408;28;20024;-65
2022/10/16 03:46:29;;;;;;;6.30;1.45;;;22.80;65.80;;;;;;5048334;28;20041;-66
2022/10/16 03:48:56;;;;;;;5.13;1.00;;;23.10;64.60;;;;;;5049352;28;20063;-66
2022/10/16 03:51:24;;;;;;;9.20;1.35;;;23.10;64.20;;;;;;5047936;28;20052;-66
2022/10/16 03:53:51;;;;;;;6.60;1.13;;;23.00;63.70;;;;;;5049342;28;20079;-66
2022/10/16 03:56:18;;;;;;;3.45;1.10;;;23.00;63.40;;;;;;5049288;28;20059;-66
2022/10/16 03:58:46;;;;;;;3.38;0.90;;;23.10;64.50;;;;;;5049099;28;20508;-67
2022/10/16 04:01:13;;;;;;;5.78;1.10;;;23.10;62.70;;;;;;5049547;28;20112;-66
2022/10/16 04:03:41;;;;;;;3.17;0.75;;;22.80;64.20;;;;;;5047744;28;20124;-66
2022/10/16 04:06:08;;;;;;;4.00;1.02;;;22.90;64.40;;;;;;5049808;28;20043;-66
2022/10/16 04:08:36;;;;;;;9.40;1.30;;;22.80;63.70;;;;;;5048244;28;20029;-66
2022/10/16 04:11:04;;;;;;;6.63;1.10;;;22.70;62.80;;;;;;5049589;28;20025;-66
2022/10/16 04:13:31;;;;;;;5.18;1.20;;;22.60;64.50;;;;;;5049259;28;20115;-65
2022/10/16 04:15:59;;;;;;;2.22;0.93;;;22.80;66.00;;;;;;5048476;28;20531;-66
2022/10/16 04:18:27;;;;;;;7.00;1.38;;;23.20;64.70;;;;;;5049062;28;20025;-67
2022/10/16 04:20:54;;;;;;;2.95;1.00;;;23.50;64.20;;;;;;5049197;28;20024;-66
2022/10/16 04:23:23;;;;;;;5.45;0.82;;;23.60;61.90;;;;;;5047806;28;20512;-65
2022/10/16 04:25:51;;;;;;;4.45;1.70;;;23.70;62.30;;;;;;5049024;28;20025;-66
2022/10/16 04:28:18;;;;;;;4.93;0.93;;;23.70;61.80;;;;;;5049148;28;20029;-67
2022/10/16 04:30:51;;;;;;;7.13;0.98;;;23.80;60.10;;;;;;5047709;28;20033;-67
2022/10/16 04:33:18;;;;;;;7.18;1.70;;;23.90;60.10;;;;;;5048941;28;20402;-66
2022/10/16 04:35:46;;;;;;;3.17;0.93;;;23.90;60.90;;;;;;5049394;28;20028;-66
2022/10/16 04:38:13;;;;;;;8.45;1.63;;;24.00;62.10;;;;;;5049005;28;20401;-66
2022/10/16 04:40:43;;;;;;;5.55;1.13;;;23.90;61.10;;;;;;5051681;28;20025;-66
2022/10/16 04:43:10;;;;;;;6.30;1.02;;;23.60;61.70;;;;;;5052817;28;20577;-65
2022/10/16 04:45:38;;;;;;;3.50;1.38;;;23.40;60.70;;;;;;5053456;28;20021;-65
2022/10/16 04:48:05;;;;;;;3.17;1.23;;;23.10;63.00;;;;;;5052706;28;20029;-65
2022/10/16 04:50:32;;;;;;;6.03;1.38;;;23.30;65.30;;;;;;5051324;28;20371;-65
2022/10/16 04:52:59;;;;;;;5.88;1.10;;;23.30;64.10;;;;;;5052708;28;20029;-66
2022/10/16 04:55:27;;;;;;;4.50;1.23;;;23.30;63.80;;;;;;5052712;28;20024;-65
2022/10/16 04:57:54;;;;;;;8.10;1.27;;;23.40;64.90;;;;;;5052670;28;20668;-66
2022/10/16 05:00:22;;;;;;;5.88;1.13;;;23.50;63.30;;;;;;5052716;28;20028;-65
2022/10/16 05:02:51;;;;;;;4.75;0.93;;;23.50;61.20;;;;;;5051110;28;20032;-66
2022/10/16 05:05:22;;;;;;;8.70;2.22;;;23.40;62.70;;;;;;5052306;28;20021;-65
2022/10/16 05:07:50;;;;;;;6.97;1.60;;;23.20;63.10;;;;;;5052627;28;20037;-65
2022/10/16 05:10:17;;;;;;;5.63;0.93;;;23.20;63.70;;;;;;5051169;28;20043;-66
2022/10/16 05:12:45;;;;;;;4.90;1.25;;;23.00;66.20;;;;;;5052612;28;20024;-66
2022/10/16 05:15:12;;;;;;;9.82;1.63;;;23.00;66.10;;;;;;5052532;28;20382;-66
2022/10/16 05:17:40;;;;;;;5.90;1.00;;;23.10;64.70;;;;;;5051281;28;20068;-66
2022/10/16 05:20:08;;;;;;;5.18;1.00;;;23.20;65.30;;;;;;5052833;28;20025;-66
2022/10/16 05:22:35;;;;;;;2.50;0.80;;;23.10;64.80;;;;;;5052101;28;20025;-66
2022/10/16 05:25:02;;;;;;;4.57;1.63;;;22.90;64.50;;;;;;5052219;28;20044;-65
2022/10/16 05:27:30;;;;;;;3.97;1.10;;;22.80;66.10;;;;;;5052125;28;20062;-66
2022/10/16 05:29:57;;;;;;;4.45;1.00;;;22.60;64.80;;;;;;5052165;28;20462;-66
2022/10/16 05:32:25;;;;;;;5.07;1.38;;;22.40;66.20;;;;;;5051256;28;20870;-65
2022/10/16 05:34:52;;;;;;;3.85;1.00;;;22.40;66.60;;;;;;5051983;28;20024;-66
2022/10/16 05:37:19;;;;;;;7.68;2.30;;;22.30;67.30;;;;;;5051657;28;20386;-66
2022/10/16 05:39:47;;;;;;;5.30;1.00;;;22.30;66.20;;;;;;5051991;28;20051;-66
2022/10/16 05:42:14;;;;;;;5.55;1.50;;;22.20;68.00;;;;;;5051990;28;20025;-67
2022/10/16 05:44:42;;;;;;;4.38;0.90;;;22.30;68.40;;;;;;5051857;28;20508;-66
2022/10/16 05:47:11;;;;;;;8.30;1.95;;;22.30;69.20;;;;;;5052193;28;20041;-65
2022/10/16 05:49:38;;;;;;;7.15;0.90;;;22.30;68.10;;;;;;5052188;28;20452;-65
2022/10/16 05:52:05;;;;;;;3.42;1.10;;;22.10;70.20;;;;;;5050675;28;20041;-65
2022/10/16 05:54:33;;;;;;;3.70;0.82;;;22.10;70.50;;;;;;5051170;28;20025;-66
2022/10/16 05:57:00;;;;;;;5.65;1.60;;;21.90;69.00;;;;;;5050249;28;20025;-66
2022/10/16 05:59:28;;;;;;;3.75;0.98;;;21.90;70.60;;;;;;5051686;28;20021;-65
2022/10/16 06:01:55;;;;;;;8.85;1.05;;;21.90;69.80;;;;;;5051464;28;20021;-66
2022/10/16 06:04:23;;;;;;;6.20;1.50;;;21.90;71.10;;;;;;5051543;28;20063;-65
2022/10/16 06:06:50;;;;;;;3.22;0.90;;;21.90;71.70;;;;;;5051479;28;20024;-66
2022/10/16 06:09:17;;;;;;;4.40;1.15;;;21.90;71.20;;;;;;5050197;28;20035;-65
2022/10/16 06:11:44;;;;;;;5.82;1.45;;;21.70;71.50;;;;;;5051254;28;20045;-66
2022/10/16 06:14:12;;;;;;;3.65;1.02;;;21.60;72.40;;;;;;5050602;28;20025;-67
2022/10/16 06:16:39;;;;;;;6.00;0.80;;;21.30;73.70;;;;;;5050713;28;20025;-60
2022/10/16 06:19:08;;;;;;;3.80;1.08;;;21.00;74.90;;;;;;5051239;28;20028;-63
2022/10/16 06:21:35;;;;;;;6.82;1.25;;;20.90;75.70;;;;;;5039180;28;20028;-63
2022/10/16 06:24:02;;;;;;;2.53;1.15;;;20.80;76.80;;;;;;5050378;28;20032;-64
2022/10/16 06:26:32;;;;;;;4.97;1.15;;;20.70;77.70;;;;;;5050489;28;20033;-59
2022/10/16 06:29:00;;;;;;;8.05;1.30;;;20.60;77.70;;;;;;5050338;28;20037;-62
2022/10/16 06:31:30;;;;;;;3.88;0.80;;;20.50;78.40;;;;;;5050077;28;20072;-63
2022/10/16 06:33:58;;;;;;;3.50;1.02;;;20.40;79.30;;;;;;5050286;28;20048;-63
2022/10/16 06:36:26;;;;;;;5.60;1.00;;;20.30;80.00;;;;;;5050186;28;20063;-63
2022/10/16 06:38:53;;;;;;;6.65;2.15;;;20.20;81.00;;;;;;5050585;28;20053;-63
2022/10/16 06:41:22;;;;;;;5.65;1.15;;;20.10;82.00;;;;;;5050916;28;20017;-64
2022/10/16 06:43:50;;;;;;;8.00;1.75;;;20.00;82.30;;;;;;5050579;28;20060;-63
2022/10/16 06:46:21;;;;;;;4.65;1.10;;;20.00;82.50;;;;;;5049922;28;20017;-63
2022/10/16 06:48:49;;;;;;;5.03;0.98;;;19.90;83.00;;;;;;5048925;28;20478;-63
2022/10/16 06:51:18;;;;;;;4.35;1.15;;;19.90;83.20;;;;;;5049851;28;20648;-63
2022/10/16 06:53:51;;;;;;;5.60;1.25;;;19.80;84.10;;;;;;5046717;28;20024;-63
2022/10/16 06:56:30;;;;;;;5.03;1.20;;;19.80;84.30;;;;;;5048901;28;20074;-63
2022/10/16 06:58:58;;;;;;;4.18;0.85;;;19.70;84.50;;;;;;5049087;28;20029;-64
2022/10/16 07:01:26;;;;;;;7.32;0.80;;;19.70;85.20;;;;;;5046423;28;20056;-63
2022/10/16 07:03:53;;;;;;;6.50;1.70;;;19.60;85.60;;;;;;5045812;28;20029;-63
2022/10/16 07:06:23;;;;;;;3.92;0.90;;;19.60;85.50;;;;;;5047443;28;20513;-64
2022/10/16 07:08:51;;;;;;;4.00;1.45;;;19.60;85.40;;;;;;5047323;28;20434;-63
2022/10/16 07:11:21;;;;;;;34.92;2.28;;;19.50;85.90;;;;;;5048678;28;20041;-62
2022/10/16 07:13:49;;;;;;;8.63;1.13;;;19.40;86.20;;;;;;5049831;28;20031;-63
2022/10/16 07:16:23;;;;;;;4.38;0.80;;;19.40;87.10;;;;;;5046086;28;20104;-63
2022/10/16 07:18:51;;;;;;;4.63;1.45;;;19.40;87.40;;;;;;5048448;28;20711;-63
2022/10/16 07:21:22;;;;;;;13.20;1.50;;;19.30;87.50;;;;;;5047729;28;20029;-65
2022/10/16 07:23:54;;;;;;;3.38;0.88;;;19.20;87.20;;;;;;5047938;28;20029;-63
2022/10/16 07:26:21;;;;;;;5.75;0.98;;;19.20;87.70;;;;;;5046529;28;20021;-63
2022/10/16 07:28:49;;;;;;;4.03;1.08;;;19.10;88.00;;;;;;5047773;28;20048;-62
2022/10/16 07:31:18;;;;;;;6.20;1.40;;;19.10;88.50;;;;;;5047714;28;20032;-62
2022/10/16 07:33:48;;;;;;;5.97;1.13;;;19.00;88.70;;;;;;5047924;28;20029;-62
2022/10/16 07:36:17;;;;;;;3.50;0.98;;;19.00;89.00;;;;;;5046952;28;20087;-63
2022/10/16 07:38:46;;;;;;;4.63;1.10;;;18.90;90.00;;;;;;5048307;28;20037;-63
2022/10/16 07:41:16;;;;;;;3.28;0.90;;;18.80;89.70;;;;;;5045904;28;20048;-64
2022/10/16 07:43:54;;;;;;;4.72;1.25;;;18.80;90.10;;;;;;5048147;28;20029;-63
2022/10/16 07:46:23;;;;;;;7.55;1.00;;;18.70;90.30;;;;;;5046860;28;20056;-62
2022/10/16 07:48:51;;;;;;;3.92;1.10;;;18.60;90.20;;;;;;5046458;28;20425;-62
2022/10/16 07:51:20;;;;;;;6.18;1.40;;;18.50;90.10;;;;;;5044814;28;20045;-62
2022/10/16 07:53:48;;;;;;;8.85;1.60;;;18.50;90.00;;;;;;5047427;28;20033;-62
2022/10/16 07:56:16;;;;;;;11.15;5.05;;;18.40;90.00;;;;;;5047793;28;20025;-62
2022/10/16 07:58:44;;;;;;;11.75;1.42;;;18.40;89.70;;;;;;5043098;28;20112;-63
2022/10/16 08:01:15;;;;;;;4.65;1.30;;;18.30;89.70;;;;;;5044337;28;20028;-63
2022/10/16 08:03:52;;;;;;;7.28;2.08;;;18.30;90.10;;;;;;5043480;28;20429;-62
2022/10/16 08:06:21;;;;;;;5.47;1.50;;;18.20;90.10;;;;;;5046075;28;20017;-61
2022/10/16 08:08:48;;;;;;;7.22;1.40;;;18.10;90.00;;;;;;5038058;28;20402;-61
2022/10/16 08:11:16;;;;;;;5.97;1.13;;;18.00;90.00;;;;;;5046018;28;20017;-63
2022/10/16 08:13:43;;;;;;;6.10;1.17;;;17.90;90.20;;;;;;5046089;28;20481;-63
2022/10/16 08:16:11;;;;;;;3.78;1.40;;;17.80;90.30;;;;;;5045684;28;20565;-63
2022/10/16 08:18:40;;;;;;;6.55;1.02;;;17.80;90.50;;;;;;5047377;28;20024;-63
2022/10/16 08:21:12;;;;;;;12.80;2.00;;;17.70;90.70;;;;;;5047128;28;20108;-63
2022/10/16 08:23:40;;;;;;;5.72;1.13;;;17.60;90.80;;;;;;5046920;28;20032;-63
2022/10/16 08:26:08;;;;;;;4.90;0.98;;;17.50;91.10;;;;;;5046199;28;20021;-63
2022/10/16 08:28:36;;;;;;;4.88;1.60;;;17.40;91.40;;;;;;5045464;28;20033;-63
2022/10/16 08:31:12;;;;;;;6.65;1.00;;;17.30;91.60;;;;;;5046172;28;20033;-63
2022/10/16 08:33:41;;;;;;;7.95;1.27;;;17.20;92.20;;;;;;5044847;28;20021;-63
2022/10/16 08:36:11;;;;;;;5.88;1.60;;;17.10;92.20;;;;;;5046495;28;20609;-63
2022/10/16 08:38:39;;;;;;;7.88;0.73;;;17.00;92.60;;;;;;5041517;28;20033;-63
2022/10/16 08:41:41;;;;;;;4.95;1.00;;;16.90;92.80;;;;;;5042395;28;20025;-63
2022/10/16 08:44:28;;;;;;;7.82;1.00;;;16.90;93.00;;;;;;5034664;28;20413;-62
2022/10/16 08:47:07;;;;;;;5.05;0.80;;;16.90;93.10;;;;;;5045839;28;20692;-63
2022/10/16 08:49:34;;;;;;;4.20;1.58;;;16.80;93.30;;;;;;5045881;28;20048;-63
2022/10/16 08:52:01;;;;;;;5.38;1.02;;;16.80;93.70;;;;;;5046236;28;20198;-63
2022/10/16 08:54:42;;;;;;;5.15;1.95;;;16.80;93.70;;;;;;5046037;28;20063;-66
2022/10/16 08:57:17;;;;;;;5.80;1.00;;;16.80;93.90;;;;;;5046487;28;20056;-63
2022/10/16 08:59:45;;;;;;;7.00;1.25;;;16.80;93.90;;;;;;5045754;28;20025;-63
2022/10/16 09:02:31;;;;;;;5.63;1.48;;;16.80;94.00;;;;;;5045288;28;20505;-63
2022/10/16 09:05:35;;;;;;;5.05;0.75;;;16.80;94.30;;;;;;5043016;28;20375;-63
2022/10/16 09:08:32;;;;;;;6.15;1.02;;;16.90;94.30;;;;;;5045982;28;20700;-63
2022/10/16 09:11:17;;;;;;;3.38;1.50;;;16.90;94.20;;;;;;5046500;28;20052;-63
2022/10/16 09:14:17;;;;;;;6.88;1.05;;;16.80;94.00;;;;;;5045855;28;20112;-63
2022/10/16 09:17:04;;;;;;;6.38;1.60;;;16.80;93.80;;;;;;5044812;28;20702;-63
2022/10/16 09:19:43;;;;;;;3.22;1.25;;;16.70;93.90;;;;;;5045768;28;20122;-63
2022/10/16 09:22:17;;;;;;;3.63;0.85;;;16.70;94.20;;;;;;5046352;28;20029;-63
2022/10/16 09:24:45;;;;;;;4.25;1.13;;;16.60;94.40;;;;;;5045610;28;20032;-63
2022/10/16 09:27:14;;;;;;;3.40;0.98;;;16.50;94.80;;;;;;5049564;28;20032;-63
2022/10/16 09:29:42;;;;;;;2.20;0.93;;;16.50;95.00;;;;;;5050196;28;20040;-63
2022/10/16 09:32:19;;;;;;;5.88;1.90;;;16.50;95.20;;;;;;5049486;28;20034;-64
2022/10/16 09:34:58;;;;;;;2.40;0.93;;;16.50;95.60;;;;;;5049205;28;20021;-64
2022/10/16 09:37:27;;;;;;;3.95;0.98;;;16.40;95.80;;;;;;5048614;28;20082;-65
2022/10/16 09:39:55;;;;;;;6.78;1.15;;;16.30;96.20;;;;;;5049647;28;20025;-64
2022/10/16 09:42:32;;;;;;;7.38;1.73;;;16.20;96.50;;;;;;5049345;28;20029;-64
2022/10/16 09:45:00;;;;;;;5.65;1.08;;;16.10;96.70;;;;;;5047013;28;20453;-64
2022/10/16 09:47:30;;;;;;;5.22;1.77;;;16.10;97.50;;;;;;5048634;28;20036;-64
2022/10/16 09:50:19;;;;;;;3.97;0.70;;;16.10;97.50;;;;;;5046790;28;20068;-64
2022/10/16 09:52:46;;;;;;;3.47;1.00;;;16.10;98.00;;;;;;5047553;28;20043;-65
2022/10/16 09:55:17;;;;;;;4.38;1.23;;;16.10;98.50;;;;;;5048189;28;20029;-65
2022/10/16 09:57:55;;;;;;;3.22;0.93;;;16.20;99.30;;;;;;5049198;28;20104;-65
2022/10/16 10:00:24;;;;;;;8.20;1.85;;;16.30;99.30;;;;;;5048611;28;20028;-65
2022/10/16 10:02:53;;;;;;;9.20;1.65;;;16.30;99.50;;;;;;5047699;28;20136;-64
2022/10/16 10:05:28;;;;;;;5.80;0.98;;;16.40;99.60;;;;;;5048961;28;20474;-64
2022/10/16 10:08:05;;;;;;;7.82;2.55;;;16.30;99.70;;;;;;5047329;28;20043;-64
2022/10/16 10:10:43;;;;;;;4.72;1.30;;;16.30;99.80;;;;;;5047977;28;20029;-64
2022/10/16 10:13:26;;;;;;;8.48;1.65;;;16.30;99.90;;;;;;5047087;28;20055;-64
2022/10/16 10:15:54;;;;;;;5.38;1.20;;;16.30;99.90;;;;;;5028949;28;20026;-64
2022/10/16 10:18:23;;;;;;;4.40;1.13;;;16.20;99.90;;;;;;5036132;28;20482;-63
2022/10/16 10:21:02;;;;;;;7.13;1.17;;;16.20;99.90;;;;;;5045246;28;20033;-61
2022/10/16 10:23:30;;;;;;;2.45;0.93;;;16.20;99.90;;;;;;5046752;28;20040;-63
2022/10/16 10:26:24;;;;;;;4.32;1.30;;;16.10;99.90;;;;;;5041864;28;20028;-63
2022/10/16 10:28:58;;;;;;;3.33;1.27;;;16.10;99.90;;;;;;5044638;28;20041;-63
2022/10/16 10:32:23;;;;;;;5.47;1.00;;;16.10;99.90;;;;;;5045721;28;20029;-63
2022/10/16 10:35:03;;;;;;;8.57;2.60;;;16.10;99.90;;;;;;4999502;28;20087;-62
2022/10/16 10:37:41;;;;;;;3.83;1.02;;;16.00;99.90;;;;;;5022726;28;20282;-63
2022/10/16 10:40:36;;;;;;;6.35;1.15;;;16.00;99.90;;;;;;5036375;28;20091;-63
2022/10/16 10:43:25;;;;;;;7.70;1.08;;;16.00;99.90;;;;;;5040294;28;20029;-63
2022/10/16 10:46:04;;;;;;;6.30;1.10;;;16.00;99.90;;;;;;5041601;28;20041;-63
2022/10/16 10:49:10;;;;;;;11.05;1.05;;;15.90;99.90;;;;;;5047336;28;20091;-63
2022/10/16 10:52:13;;;;;;;8.25;1.27;;;15.80;99.90;;;;;;5047372;28;20767;-63
2022/10/16 10:54:44;;;;;;;5.70;1.42;;;15.80;99.90;;;;;;5048258;28;20051;-63
2022/10/16 10:57:26;;;;;;;4.10;1.38;;;15.70;99.90;;;;;;5047710;28;20540;-63
2022/10/16 11:00:02;;;;;;;9.30;1.65;;;15.70;99.90;;;;;;5046934;28;20080;-63
2022/10/16 11:02:50;;;;;;;6.88;1.92;;;15.70;99.90;;;;;;5045047;28;20028;-63
2022/10/16 11:05:39;;;;;;;4.45;1.40;;;15.80;99.90;;;;;;5044835;28;20037;-63
2022/10/16 11:08:21;;;;;;;10.73;2.05;;;15.80;99.90;;;;;;5045480;28;20039;-63
2022/10/16 11:11:03;;;;;;;6.03;2.10;;;15.90;99.90;;;;;;5046644;28;20079;-63
2022/10/16 11:13:55;;;;;;;11.40;1.60;;;16.00;99.90;;;;;;5046968;28;20048;-63
2022/10/16 11:16:40;;;;;;;5.75;1.75;;;16.00;99.90;;;;;;5047427;28;20381;-63
2022/10/16 11:19:22;;;;;;;6.07;1.25;;;16.10;99.90;;;;;;5045221;28;20612;-63
2022/10/16 11:22:10;;;;;;;9.73;1.95;;;16.20;99.90;;;;;;5047445;28;20110;-64
2022/10/16 11:24:59;;;;;;;10.05;1.70;;;16.20;99.90;;;;;;5047156;28;20036;-63
2022/10/16 11:28:05;;;;;;;14.50;1.70;;;16.20;99.90;;;;;;5045369;28;20041;-63
2022/10/16 11:30:47;;;;;;;5.57;1.85;;;16.30;99.90;;;;;;5044423;28;20036;-63
2022/10/16 11:33:38;;;;;;;12.85;2.05;;;16.30;99.90;;;;;;5035207;28;20583;-63
2022/10/16 11:36:24;;;;;;;9.77;2.00;;;16.30;99.90;;;;;;5036447;28;20112;-63
2022/10/16 11:38:58;;;;;;;4.78;1.73;;;16.30;99.90;;;;;;5037759;28;20025;-63
2022/10/16 11:41:51;;;;;;;7.13;1.98;;;16.30;99.90;;;;;;5043936;28;20025;-63
2022/10/16 11:44:47;;;;;;;5.18;2.22;;;16.40;99.90;;;;;;5041905;28;20036;-63
2022/10/16 11:47:49;;;;;;;11.02;2.58;;;16.40;99.90;;;;;;5042164;28;20036;-64
2022/10/16 11:50:21;;;;;;;12.40;2.28;;;16.40;99.90;;;;;;5041725;28;20366;-62
2022/10/16 11:53:03;;;;;;;10.70;2.38;;;16.40;99.90;;;;;;5042825;28;20029;-63
2022/10/16 11:55:57;;;;;;;9.07;2.80;;;16.40;99.90;;;;;;5046682;28;20363;-63
2022/10/16 11:58:39;;;;;;;9.32;2.42;;;16.30;99.90;;;;;;5040430;28;20041;-63
2022/10/16 12:01:28;;;;;;;13.48;3.55;;;16.30;99.90;;;;;;5044379;28;20025;-63
2022/10/16 12:04:17;;;;;;;5.78;2.30;;;16.30;99.90;;;;;;5039890;28;20025;-63
2022/10/16 12:07:02;;;;;;;12.13;2.50;;;16.30;99.80;;;;;;5047515;28;20025;-63
2022/10/16 12:09:31;;;;;;;7.30;2.10;;;16.30;99.80;;;;;;5046679;28;20124;-63
2022/10/16 12:11:58;;;;;;;10.15;2.35;;;16.30;99.80;;;;;;5047447;28;20108;-63
2022/10/16 12:14:28;;;;;;;7.53;2.17;;;16.30;99.80;;;;;;5045917;28;20032;-63
2022/10/16 12:16:58;;;;;;;7.38;2.25;;;16.30;99.80;;;;;;5047905;28;20025;-63
2022/10/16 12:19:29;;;;;;;11.43;2.40;;;16.30;99.90;;;;;;5045008;28;20612;-63
2022/10/16 12:22:01;;;;;;;8.52;2.33;;;16.30;99.80;;;;;;5046816;28;20030;-63
2022/10/16 12:24:43;;;;;;;4.22;1.65;;;16.30;99.60;;;;;;5046569;28;20500;-63
2022/10/16 12:27:32;;;;;;;10.30;2.10;;;16.30;99.60;;;;;;5046596;28;20029;-63
2022/10/16 12:30:02;;;;;;;6.78;1.63;;;16.20;99.60;;;;;;5047589;28;20056;-62
2022/10/16 12:32:39;;;;;;;7.55;1.50;;;16.20;99.40;;;;;;5043784;28;20030;-62
2022/10/16 12:35:27;;;;;;;10.75;1.90;;;16.20;99.00;;;;;;5048866;28;20017;-63
2022/10/16 12:38:05;;;;;;;9.50;1.92;;;16.20;99.10;;;;;;5049488;28;20051;-63
2022/10/16 12:40:35;;;;;;;9.98;2.72;;;16.10;99.00;;;;;;5045561;28;20025;-63
2022/10/16 12:43:21;;;;;;;8.35;1.60;;;16.10;98.70;;;;;;5043574;28;20114;-63
2022/10/16 12:46:01;;;;;;;7.38;1.73;;;16.10;98.50;;;;;;5043558;28;20029;-63
2022/10/16 12:48:28;;;;;;;7.75;1.45;;;16.10;98.40;;;;;;5047665;28;20037;-63
2022/10/16 12:50:56;;;;;;;7.78;1.58;;;16.10;97.90;;;;;;5046205;28;20072;-63
2022/10/16 12:53:26;;;;;;;7.20;0.90;;;16.10;97.70;;;;;;5046509;28;20021;-63
2022/10/16 12:56:14;;;;;;;7.25;1.73;;;16.00;97.40;;;;;;5048702;28;20033;-63
2022/10/16 12:58:59;;;;;;;4.75;0.85;;;16.00;97.30;;;;;;5047815;28;20040;-63
2022/10/16 13:02:11;;;;;;;5.35;1.63;;;16.00;96.80;;;;;;5048577;28;20029;-62
2022/10/16 13:04:56;;;;;;;5.53;0.98;;;16.00;97.00;;;;;;5047755;28;20397;-63
2022/10/16 13:07:41;;;;;;;8.52;1.27;;;15.90;97.10;;;;;;5051349;28;20021;-63
2022/10/16 13:10:17;;;;;;;5.05;0.80;;;15.90;97.40;;;;;;5049656;28;20031;-63
2022/10/16 13:12:50;;;;;;;9.82;1.10;;;15.80;97.40;;;;;;5047954;28;20052;-63
2022/10/16 13:15:49;;;;;;;7.68;1.15;;;15.80;97.20;;;;;;5048972;28;20378;-63
2022/10/16 13:18:19;;;;;;;3.13;1.15;;;15.80;96.80;;;;;;5034400;28;20506;-63